Flight Track Log - Related Links

Times and Time Zones

All times are in EDT time to prevent confusion due to time zone crossing. See the DAL1356 flight status page for this flight to view local times or setup timezone preferences in your user account.

Time Position Orientation Groundspeed Altitude Reporting Facility
EDT Latitude Longitude Course Direction KTS MPH feet Rate Location/Type
Fri 10:00:27 PM 42.1972 -83.3742 275° West 179 206 1,400  Level Cleveland Center
Fri 10:01:22 PM 42.1642 -83.4203 226° Southwest 208 239 3,100 1,879 Climbing Cleveland Center
Fri 10:02:06 PM 42.1372 -83.4675 232° Southwest 226 260 4,500 2,100 Climbing Cleveland Center
Fri 10:02:22 PM 42.1411 -83.4989 279° West 254 292 5,200 2,459 Climbing Cleveland Center
Fri 10:03:00 PM 42.1913 -83.8128 292° West  Level Estimated
Fri 10:03:07 PM 42.1653 -83.5453 305° West 260 299 7,000  Level Cleveland Center
Fri 10:04:00 PM 42.2676 -83.9266 312° West  Level FlightAware Approximate
Fri 10:04:08 PM 42.2058 -83.6447 299° West 274 315 10,000  Level Cleveland Center
Fri 10:05:00 PM 42.2596 -84.0798 275° West  Level Estimated
Fri 10:05:10 PM 42.2467 -83.7467 298° West 310 357 12,200  Level Cleveland Center
Fri 10:06:11 PM 42.2900 -83.8544 299° West 323 372 13,600 1,869 Climbing Cleveland Center
Fri 10:07:12 PM 42.3403 -83.9764 299° West 366 421 16,000 2,049 Climbing Cleveland Center
Fri 10:08:14 PM 42.3892 -84.0992 298° West 372 428 17,800 1,854 Climbing Cleveland Center
Fri 10:09:15 PM 42.4272 -84.2356 291° West 401 461 19,800 2,066 Climbing Cleveland Center
Fri 10:10:16 PM 42.4325 -84.3817 273° West 394 453 22,000 2,106 Climbing Cleveland Center
Fri 10:10:49 PM 42.4350 -84.4564 273° West 393 452 23,100 1,705 Climbing Chicago Center
Fri 10:11:51 PM 42.4375 -84.6011 271° West 388 447 24,700 1,561 Climbing Chicago Center
Fri 10:12:52 PM 42.4436 -84.7800 273° West 395 455 26,300 1,415 Climbing Chicago Center
Fri 10:13:54 PM 42.4464 -84.9328 271° West 402 463 27,600 1,220 Climbing Chicago Center
Fri 10:14:55 PM 42.4500 -85.0869 272° West 408 470 28,800 1,220 Climbing Chicago Center
Fri 10:15:57 PM 42.4525 -85.2444 271° West 415 478 30,100 1,355 Climbing Chicago Center
Fri 10:16:59 PM 42.4553 -85.3983 271° West 412 474 31,600 1,415 Climbing Chicago Center
Fri 10:18:00 PM 42.4578 -85.5506 271° West 407 468 33,000 1,171 Climbing Chicago Center
Fri 10:19:02 PM 42.4600 -85.7003 271° West 401 461 34,000 780 Climbing Chicago Center
Fri 10:20:03 PM 42.4611 -85.8481 271° West 395 455 34,600 585 Climbing Chicago Center
Fri 10:21:05 PM 42.4639 -86.0006 271° West 403 464 35,200 683 Climbing Chicago Center
Fri 10:22:06 PM 42.4539 -86.1850 266° West 412 474 36,000 390 Climbing Chicago Center
Fri 10:23:08 PM 42.4347 -86.3372 260° West 409 471 36,000  Level Chicago Center
Fri 10:24:09 PM 42.4161 -86.4911 261° West 414 476 36,000  Level Chicago Center
Fri 10:25:11 PM 42.3961 -86.6436 260° West 410 472 36,000  Level Chicago Center
Fri 10:26:12 PM 42.3797 -86.7969 262° West 409 471 36,000  Level Chicago Center
Fri 10:27:14 PM 42.3597 -86.9472 260° West 409 471 36,000  Level Chicago Center
Fri 10:28:15 PM 42.3378 -87.0958 259° West 407 468 36,000  Level Chicago Center
Fri 10:29:17 PM 42.3172 -87.2444 259° West 406 467 36,000  Level Chicago Center
Fri 10:30:18 PM 42.2939 -87.4244 260° West 405 466 36,000  Level Chicago Center
Fri 10:31:19 PM 42.2756 -87.5789 261° West 414 476 36,000  Level Chicago Center
Fri 10:32:21 PM 42.2536 -87.7272 259° West 411 473 36,000  Level Chicago Center
Fri 10:33:22 PM 42.2311 -87.8731 258° West 403 464 36,000  Level Chicago Center
Fri 10:34:23 PM 42.2097 -88.0233 259° West 411 473 36,000  Level Chicago Center
Fri 10:35:25 PM 42.1833 -88.1697 256° West 408 470 36,000  Level Chicago Center
Fri 10:36:26 PM 42.1511 -88.3483 256° West 411 473 36,000  Level Chicago Center
Fri 10:37:27 PM 42.1247 -88.4958 256° West 410 472 36,000  Level Chicago Center
Fri 10:38:29 PM 42.0986 -88.6439 257° West 410 472 36,000  Level Chicago Center
Fri 10:39:30 PM 42.0717 -88.7919 256° West 412 474 36,000  Level Chicago Center
Fri 10:40:31 PM 42.0442 -88.9403 256° West 412 474 36,000  Level Chicago Center
Fri 10:41:32 PM 42.0175 -89.0881 256° West 411 473 36,000  Level Chicago Center
Fri 10:42:34 PM 41.9894 -89.2356 256° West 411 473 36,000  Level Chicago Center
Fri 10:43:35 PM 41.9558 -89.4092 255° West 407 468 36,000  Level Chicago Center
Fri 10:44:36 PM 41.9297 -89.5531 256° West 404 465 36,000  Level Chicago Center
Fri 10:45:37 PM 41.9017 -89.6978 255° West 403 464 36,000  Level Chicago Center
Fri 10:46:38 PM 41.8739 -89.8431 256° West 405 466 36,000  Level Chicago Center
Fri 10:47:39 PM 41.8483 -89.9875 257° West 409 471 36,000  Level Chicago Center
Fri 10:48:40 PM 41.8203 -90.1333 256° West 408 470 36,000  Level Chicago Center
Fri 10:49:42 PM 41.7894 -90.2875 255° West 414 476 36,000  Level Chicago Center
Fri 10:50:43 PM 41.7594 -90.4378 255° West 418 481 36,000  Level Chicago Center
Fri 10:51:44 PM 41.7300 -90.5850 255° West 414 476 36,000  Level Chicago Center
Fri 10:52:45 PM 41.6953 -90.7539 255° West 409 471 36,000  Level Chicago Center
Fri 10:53:46 PM 41.6661 -90.9033 255° West 415 478 36,000  Level Chicago Center
Fri 10:54:47 PM 41.6356 -91.0511 255° West 416 479 36,000  Level Chicago Center
Fri 10:55:48 PM 41.6056 -91.1978 255° West 413 475 36,000  Level Chicago Center
Fri 10:56:49 PM 41.5750 -91.3439 254° West 412 474 36,000  Level Chicago Center
Fri 10:57:50 PM 41.5450 -91.4917 255° West 414 476 36,000  Level Chicago Center
Fri 10:58:51 PM 41.5153 -91.6369 255° West 411 473 36,000  Level Chicago Center
Fri 10:59:52 PM 41.5022 -91.7867 263° West 412 474 36,000  Level Chicago Center
Fri 11:00:53 PM 41.4881 -91.9381 263° West 412 474 36,000  Level Chicago Center
Fri 11:01:54 PM 41.4711 -92.1156 263° West 405 466 36,000  Level Chicago Center
Fri 11:02:55 PM 41.4572 -92.2633 263° West 404 465 36,000  Level Chicago Center
Fri 11:03:56 PM 41.4414 -92.4153 262° West 402 463 36,000  Level Chicago Center
Fri 11:04:57 PM 41.4269 -92.5608 263° West 401 461 36,000  Level Chicago Center
Fri 11:06:03 PM 41.4125 -92.7061 262° West 398 458 36,000  Level Minneapolis Center
Fri 11:07:04 PM 41.3975 -92.8503 262° West 397 457 36,000  Level Minneapolis Center
Fri 11:08:05 PM 41.3786 -93.0258 262° West 402 463 36,000  Level Minneapolis Center
Fri 11:09:06 PM 41.3639 -93.1722 262° West 402 463 36,000  Level Minneapolis Center
Fri 11:10:07 PM 41.3475 -93.3194 262° West 404 465 36,000  Level Minneapolis Center
Fri 11:11:08 PM 41.3339 -93.4678 263° West 408 470 36,000  Level Minneapolis Center
Fri 11:12:09 PM 41.3439 -93.6111 275° West 398 458 36,000  Level Minneapolis Center
Fri 11:13:10 PM 41.3517 -93.7622 274° West 409 471 36,000  Level Minneapolis Center
Fri 11:14:11 PM 41.3497 -93.9103 269° West 405 466 36,000  Level Minneapolis Center
Fri 11:15:12 PM 41.3311 -94.0556 260° West 402 463 36,000  Level Minneapolis Center
Fri 11:16:14 PM 41.3092 -94.2317 261° West 407 468 36,000  Level Minneapolis Center
Fri 11:17:15 PM 41.2919 -94.3772 261° West 402 463 36,000  Level Minneapolis Center
Fri 11:18:16 PM 41.2778 -94.5275 263° West 407 468 36,000  Level Minneapolis Center
Fri 11:19:17 PM 41.2594 -94.6758 261° West 407 468 36,000  Level Minneapolis Center
Fri 11:20:18 PM 41.2408 -94.8253 261° West 409 471 36,000  Level Minneapolis Center
Fri 11:21:19 PM 41.2239 -94.9736 261° West 409 471 36,000  Level Minneapolis Center
Fri 11:22:20 PM 41.2050 -95.1225 260° West 409 471 36,000  Level Minneapolis Center
Fri 11:23:21 PM 41.1858 -95.2706 260° West 408 470 36,000  Level Minneapolis Center
Fri 11:24:22 PM 41.1664 -95.4169 260° West 403 464 36,000  Level Minneapolis Center
Fri 11:25:23 PM 41.1475 -95.5658 260° West 407 468 36,000  Level Minneapolis Center
Fri 11:26:24 PM 41.1278 -95.7297 261° West 407 468 36,000  Level Minneapolis Center
Fri 11:27:25 PM 41.1081 -95.8650 259° West 409 471 36,000  Level Minneapolis Center
Fri 11:28:26 PM 41.0889 -96.0167 261° West 411 473 36,000  Level Minneapolis Center
Fri 11:29:27 PM 41.0703 -96.1664 261° West 409 471 36,000  Level Minneapolis Center
Fri 11:30:28 PM 41.0508 -96.3142 260° West 406 467 36,000  Level Minneapolis Center
Fri 11:31:28 PM 41.0317 -96.4608 260° West 404 465 36,000  Level Minneapolis Center
Fri 11:32:29 PM 41.0114 -96.6067 260° West 402 463 36,000  Level Minneapolis Center
Fri 11:33:30 PM 40.9875 -96.7781 260° West 397 457 36,000  Level Minneapolis Center
Fri 11:34:31 PM 40.9669 -96.9228 259° West 399 459 36,000  Level Minneapolis Center
Fri 11:35:32 PM 40.9467 -97.0683 260° West 400 460 36,000  Level Minneapolis Center
Fri 11:36:33 PM 40.9272 -97.2111 260° West 397 457 36,000  Level Minneapolis Center
Fri 11:37:34 PM 40.9067 -97.3539 259° West 395 455 36,000  Level Minneapolis Center
Fri 11:38:35 PM 40.8844 -97.5061 259° West 397 457 36,000  Level Minneapolis Center
Fri 11:39:36 PM 40.8639 -97.6514 259° West 400 460 36,000  Level Minneapolis Center
Fri 11:40:37 PM 40.8428 -97.7972 259° West 402 463 36,000  Level Minneapolis Center
Fri 11:41:38 PM 40.8208 -97.9439 259° West 405 466 36,000  Level Minneapolis Center
Fri 11:42:39 PM 40.7989 -98.0925 259° West 409 471 36,000  Level Minneapolis Center
Fri 11:43:40 PM 40.7764 -98.2419 259° West 412 474 36,000  Level Minneapolis Center
Fri 11:44:40 PM 40.7544 -98.3903 259° West 411 473 36,000  Level Minneapolis Center
Fri 11:45:41 PM 40.7306 -98.5392 258° West 412 474 36,000  Level Minneapolis Center
Fri 11:46:42 PM 40.7075 -98.6886 259° West 412 474 36,000  Level Minneapolis Center
Fri 11:47:43 PM 40.6847 -98.8367 259° West 410 472 36,000  Level Minneapolis Center
Fri 11:48:44 PM 40.6625 -98.9844 259° West 409 471 36,000  Level Minneapolis Center
Fri 11:49:45 PM 40.6392 -99.1314 258° West 408 470 36,000  Level Minneapolis Center
Fri 11:50:46 PM 40.6175 -99.2750 259° West 403 464 36,000  Level Minneapolis Center
Fri 11:51:46 PM 40.5947 -99.4128 258° West 391 450 36,000  Level Minneapolis Center
Fri 11:52:47 PM 40.5714 -99.5511 258° West 387 445 36,000  Level Minneapolis Center
Fri 11:53:48 PM 40.5494 -99.6894 258° West 386 444 36,000  Level Minneapolis Center
Fri 11:54:49 PM 40.5264 -99.8286 258° West 388 447 36,000  Level Minneapolis Center
Fri 11:55:49 PM 40.5031 -99.9653 257° West 386 444 36,000  Level Minneapolis Center
Fri 11:56:50 PM 40.4808 -100.1042 258° West 386 444 36,000  Level Minneapolis Center
Fri 11:57:51 PM 40.4581 -100.2422 258° West 387 445 36,000  Level Minneapolis Center
Fri 11:58:52 PM 40.4344 -100.3789 257° West 386 444 36,000  Level Minneapolis Center
Fri 11:59:57 PM 40.4069 -100.5447 258° West 386 444 36,000  Level Minneapolis Center
Sat 12:00:58 AM 40.3822 -100.6678 255° West 386 444 36,000 148 Level Denver Center
Sat 12:01:59 AM 40.3553 -100.8225 257° West 388 447 36,300 590 Climbing Denver Center
Sat 12:03:00 AM 40.3319 -100.9542 257° West 387 445 37,200 836 Climbing Denver Center
Sat 12:04:01 AM 40.3097 -101.0839 257° West 382 440 38,000 393 Climbing Denver Center
Sat 12:05:02 AM 40.2833 -101.2314 257° West 374 430 38,000  Level Denver Center
Sat 12:06:03 AM 40.2603 -101.3583 257° West 373 429 38,000  Level Denver Center
Sat 12:07:04 AM 40.2367 -101.4847 256° West 373 429 38,000  Level Denver Center
Sat 12:08:05 AM 40.2106 -101.6311 257° West 371 427 38,000  Level Denver Center
Sat 12:09:06 AM 40.1856 -101.7603 256° West 379 436 38,000  Level Denver Center
Sat 12:10:07 AM 40.1617 -101.8922 257° West 387 445 38,000  Level Denver Center
Sat 12:11:08 AM 40.1317 -102.0467 256° West 391 450 38,000  Level Denver Center
Sat 12:12:08 AM 40.1075 -102.1811 257° West 396 456 38,000  Level Denver Center
Sat 12:13:09 AM 40.0778 -102.3381 256° West 398 458 38,000  Level Denver Center
Sat 12:14:10 AM 40.0533 -102.4675 256° West 387 445 38,000  Level Denver Center
Sat 12:15:11 AM 40.0278 -102.5969 256° West 384 442 38,000  Level Denver Center
Sat 12:16:12 AM 40.0028 -102.7239 256° West 382 440 38,000  Level Denver Center
Sat 12:17:13 AM 39.9775 -102.8589 256° West 384 442 38,000  Level Denver Center
Sat 12:18:14 AM 39.9447 -103.0217 255° West 388 447 38,000  Level Denver Center
Sat 12:19:15 AM 39.9189 -103.1592 256° West 392 451 38,000  Level Denver Center
Sat 12:20:15 AM 39.8908 -103.2972 255° West 394 453 38,000  Level Denver Center
Sat 12:21:16 AM 39.8639 -103.4350 256° West 396 456 38,000  Level Denver Center
Sat 12:22:17 AM 39.8356 -103.5733 255° West 396 456 38,000  Level Denver Center
Sat 12:23:18 AM 39.8064 -103.7119 255° West 399 459 38,000  Level Denver Center
Sat 12:24:19 AM 39.7717 -103.8489 252° West 400 460 38,000  Level Denver Center
Sat 12:25:19 AM 39.7367 -103.9847 252° West 397 457 38,000  Level Denver Center
Sat 12:26:20 AM 39.7022 -104.1192 252° West 392 451 38,000  Level Denver Center
Sat 12:27:21 AM 39.6661 -104.2564 251° West 401 461 38,000  Level Denver Center
Sat 12:28:22 AM 39.6308 -104.3933 252° West 399 459 38,000  Level Denver Center
Sat 12:29:23 AM 39.5911 -104.5433 251° West 408 470 38,000  Level Denver Center
Sat 12:30:23 AM 39.5544 -104.6817 251° West 405 466 38,000  Level Denver Center
Sat 12:31:24 AM 39.5178 -104.8197 251° West 406 467 38,000  Level Denver Center
Sat 12:32:25 AM 39.4814 -104.9567 251° West 402 463 38,000  Level Denver Center
Sat 12:33:26 AM 39.4422 -105.1044 251° West 403 464 38,000  Level Denver Center
Sat 12:34:26 AM 39.4083 -105.2272 250° West 395 455 38,000  Level Denver Center
Sat 12:35:27 AM 39.3711 -105.3622 250° West 396 456 38,000  Level Denver Center
Sat 12:36:28 AM 39.3347 -105.4967 251° West 397 457 38,000  Level Denver Center
Sat 12:37:29 AM 39.2989 -105.6314 251° West 396 456 38,000  Level Denver Center
Sat 12:38:29 AM 39.2608 -105.7658 250° West 399 459 38,000  Level Denver Center
Sat 12:39:30 AM 39.2239 -105.9017 251° West 401 461 38,000  Level Denver Center
Sat 12:40:31 AM 39.1858 -106.0389 250° West 407 468 38,000  Level Denver Center
Sat 12:41:31 AM 39.1411 -106.1947 250° West 407 468 38,000  Level Denver Center
Sat 12:42:32 AM 39.1061 -106.3264 251° West 406 467 38,000  Level Denver Center
Sat 12:43:33 AM 39.0617 -106.4792 250° West 406 467 38,000  Level Denver Center
Sat 12:44:34 AM 39.0236 -106.6103 250° West 408 470 38,000  Level Denver Center
Sat 12:45:34 AM 38.9861 -106.7411 250° West 408 470 38,000  Level Denver Center
Sat 12:46:35 AM 38.9475 -106.8725 249° West 409 471 38,000  Level Denver Center
Sat 12:47:36 AM 38.9031 -107.0256 250° West 408 470 38,000  Level Denver Center
Sat 12:48:36 AM 38.8642 -107.1603 250° West 411 473 38,000  Level Denver Center
Sat 12:49:37 AM 38.8269 -107.2897 250° West 413 475 38,000  Level Denver Center
Sat 12:50:38 AM 38.7811 -107.4444 249° West 417 480 38,000  Level Denver Center
Sat 12:51:38 AM 38.7406 -107.5775 249° West 418 481 38,000  Level Denver Center
Sat 12:52:39 AM 38.7014 -107.7119 250° West 420 483 38,000  Level Denver Center
Sat 12:53:40 AM 38.6553 -107.8672 249° West 418 481 38,000  Level Denver Center
Sat 12:54:40 AM 38.6150 -108.0025 249° West 423 487 38,000  Level Denver Center
Sat 12:55:41 AM 38.5756 -108.1347 249° West 417 480 38,000  Level Denver Center
Sat 12:56:41 AM 38.5283 -108.2906 249° West 419 482 38,000  Level Denver Center
Sat 12:57:42 AM 38.4878 -108.4250 249° West 421 484 38,000  Level Denver Center
Sat 12:58:43 AM 38.4458 -108.5586 248° West 423 487 38,000  Level Denver Center
Sat 12:59:43 AM 38.4056 -108.6917 249° West 421 484 38,000  Level Denver Center
Sat 01:00:44 AM 38.3572 -108.8494 249° West 427 491 38,000  Level Denver Center
Sat 01:01:44 AM 38.3153 -108.9858 249° West 431 496 38,000  Level Denver Center
Sat 01:02:45 AM 38.2719 -109.1225 248° West 433 498 38,000  Level Denver Center
Sat 01:03:45 AM 38.2233 -109.2769 248° West 423 487 38,000  Level Denver Center
Sat 01:04:46 AM 38.1819 -109.4078 248° West 420 483 38,000  Level Denver Center
Sat 01:05:46 AM 38.1386 -109.5411 248° West 426 490 38,000  Level Denver Center
Sat 01:06:47 AM 38.0889 -109.6967 248° West 426 490 38,000  Level Denver Center
Sat 01:07:47 AM 38.0442 -109.8311 247° West 429 494 38,000  Level Denver Center
Sat 01:08:48 AM 38.0028 -109.9661 249° West 430 495 38,000  Level Denver Center
Sat 01:09:48 AM 37.9603 -110.0978 248° West 425 489 38,000  Level Denver Center
Sat 01:10:49 AM 37.9097 -110.2517 247° West 424 488 38,000  Level Denver Center
Sat 01:11:49 AM 37.8675 -110.3825 248° West 422 486 38,000  Level Denver Center
Sat 01:12:50 AM 37.8264 -110.5100 248° West 415 478 38,000  Level Denver Center
Sat 01:13:50 AM 37.7775 -110.6558 247° West 417 480 38,000  Level Denver Center
Sat 01:14:51 AM 37.7319 -110.7906 247° West 418 481 38,000  Level Denver Center
Sat 01:15:51 AM 37.6867 -110.9253 247° West 417 480 38,000  Level Denver Center
Sat 01:16:52 AM 37.6419 -111.0608 247° West 419 482 38,000  Level Denver Center
Sat 01:17:52 AM 37.5964 -111.1967 247° West 422 486 38,000  Level Denver Center
Sat 01:18:52 AM 37.5508 -111.3322 247° West 421 484 38,000  Level Denver Center
Sat 01:19:53 AM 37.5047 -111.4664 247° West 419 482 38,000  Level Denver Center
Sat 01:20:53 AM 37.4592 -111.6028 247° West 422 486 38,000  Level Denver Center
Sat 01:21:54 AM 37.4125 -111.7381 247° West 421 484 38,000  Level Denver Center
Sat 01:22:54 AM 37.3664 -111.8714 247° West 416 479 38,000  Level Denver Center
Sat 01:23:55 AM 37.3211 -112.0033 247° West 412 474 38,000 -397 Level Denver Center
Sat 01:24:55 AM 37.2744 -112.1378 246° West 416 479 37,200 -843 Descending Denver Center
Sat 01:25:56 AM 37.2267 -112.2725 246° West 420 483 36,300 -942 Descending Denver Center
Sat 01:26:56 AM 37.1811 -112.4036 246° West 414 476 35,300 -1,007 Descending Denver Center
Sat 01:28:25 AM 37.1061 -112.6158 246° West 421 484 33,800 -1,080 Descending Los Angeles Center
Sat 01:29:26 AM 37.0572 -112.7531 246° West 430 495 32,600 -2,410 Descending Los Angeles Center
Sat 01:30:27 AM 37.0072 -112.8950 246° West 439 505 28,900 -3,492 Descending Los Angeles Center
Sat 01:31:28 AM 36.9556 -113.0403 246° West 450 518 25,500 -2,164 Descending Los Angeles Center
Sat 01:32:29 AM 36.9031 -113.1861 246° West 456 525 24,500 -976 Descending Los Angeles Center
Sat 01:33:31 AM 36.8514 -113.3286 246° West 454 522 23,500 -976 Descending Los Angeles Center
Sat 01:34:32 AM 36.8000 -113.4692 245° Southwest 447 514 22,500 -984 Descending Los Angeles Center
Sat 01:35:33 AM 36.7503 -113.6072 246° West 441 507 21,500 -984 Descending Los Angeles Center
Sat 01:36:34 AM 36.7014 -113.7439 246° West 435 501 20,500 -984 Descending Los Angeles Center
Sat 01:37:35 AM 36.6519 -113.8778 245° Southwest 429 494 19,500 -984 Descending Los Angeles Center
Sat 01:38:36 AM 36.6028 -114.0100 245° Southwest 424 488 18,500 -1,377 Descending Los Angeles Center
Sat 01:39:37 AM 36.5528 -114.1378 244° Southwest 416 479 16,700 -2,115 Descending Los Angeles Center
Sat 01:40:38 AM 36.4958 -114.2558 239° Southwest 404 465 14,200 -2,743 Descending Los Angeles Center
Sat 01:40:47 AM 36.4769 -114.2992 242° Southwest 402 463 13,500 -2,250 Descending Los Angeles Center
Sat 01:41:18 AM 36.4522 -114.3531 240° Southwest 386 444 12,700 -1,154 Descending Los Angeles Center
Sat 01:41:39 AM 36.4347 -114.3939 242° Southwest 386 444 12,500 -655 Descending Los Angeles Center
Sat 01:42:13 AM 36.4069 -114.4514 239° Southwest 350 403 12,100 -492 Descending Los Angeles Center
Sat 01:42:40 AM 36.3872 -114.4942 240° Southwest 350 403 12,000 -627 Descending Los Angeles Center
Sat 01:43:20 AM 36.3581 -114.5619 242° Southwest 325 374 11,400 -885 Descending Los Angeles Center
Sat 01:43:41 AM 36.3428 -114.5914 237° Southwest 328 377 11,100 -984 Descending Los Angeles Center
Sat 01:44:21 AM 36.3128 -114.6600 242° Southwest 317 365 10,400 -1,180 Descending Los Angeles Center
Sat 01:44:42 AM 36.2986 -114.6864 236° Southwest 319 367 9,900 -1,667 Descending Los Angeles Center
Sat 01:45:15 AM 36.2725 -114.7431 240° Southwest 319 367 8,900 -1,279 Descending Los Angeles Center
Sat 01:45:43 AM 36.2542 -114.7817 240° Southwest 319 367 8,600 -806 Descending Los Angeles Center
Sat 01:46:22 AM 36.2256 -114.8442 240° Southwest 300 345 8,000 -590 Descending Los Angeles Center
Sat 01:46:44 AM 36.2131 -114.8686 238° Southwest 298 343 8,000  Level Los Angeles Center
Sat 01:47:23 AM 36.1906 -114.9200 242° Southwest 243 280 8,000  Level Los Angeles Center
Sat 01:47:45 AM 36.1806 -114.9389 237° Southwest 242 278 8,000  Level Los Angeles Center
Sat 01:48:24 AM 36.1600 -114.9886 243° Southwest 216 249 8,000  Level Los Angeles Center
Sat 01:48:46 AM 36.1508 -115.0039 233° Southwest 220 253 8,000  Level Los Angeles Center
Sat 01:49:19 AM 36.1336 -115.0453 243° Southwest 212 244 8,000  Level Los Angeles Center
Sat 01:49:47 AM 36.1133 -115.0578 206° Southwest 215 247 8,000  Level Los Angeles Center
Sat 01:50:20 AM 36.0778 -115.0772 204° Southwest 220 253 8,000  Level Los Angeles Center
Sat 01:50:48 AM 36.0558 -115.0861 198° South 221 254 8,000  Level Los Angeles Center
Sat 01:51:20 AM 36.0211 -115.1039 202° Southwest 221 254 8,000  Level Los Angeles Center
Sat 01:51:48 AM 35.9981 -115.1144 200° South 221 254 8,000  Level Los Angeles Center
Sat 01:52:33 AM 35.9486 -115.1383 201° Southwest 224 258 8,000  Level Los Angeles Center
Sat 01:52:50 AM 35.9397 -115.1419 198° South 223 257 8,000  Level Los Angeles Center
Sat 01:53:22 AM 35.9000 -115.1625 203° Southwest 224 258 8,000  Level Los Angeles Center
Sat 01:53:50 AM 35.8817 -115.1708 200° South 224 258 8,000  Level Los Angeles Center
Sat 01:54:23 AM 35.8417 -115.1922 203° Southwest 226 260 8,000 -98 Level Los Angeles Center
Sat 01:54:51 AM 35.8228 -115.1994 197° South 224 258 7,900 -448 Descending Los Angeles Center
Sat 01:55:30 AM 35.7922 -115.2428 229° Southwest 215 247 7,500 -492 Descending Los Angeles Center
Sat 01:55:52 AM 35.7853 -115.2583 241° Southwest 224 258 7,400 -444 Descending Los Angeles Center
Sat 01:56:24 AM 35.7958 -115.3000 287° West 181 208 7,100 -492 Descending Los Angeles Center
Sat 01:56:53 AM 35.8069 -115.3125 318° Northwest 196 226 6,900 -716 Descending Los Angeles Center
Sat 01:57:31 AM 35.8414 -115.3011 15° North 161 185 6,300 -590 Descending Los Angeles Center
Sat 01:57:54 AM 35.8475 -115.2958 35° Northeast 170 196 6,300  Level Los Angeles Center
Sat 01:58:32 AM 35.8803 -115.2803 21° North 155 178 6,300 -197 Level Los Angeles Center
Sat 01:58:55 AM 35.8944 -115.2692 32° Northeast 159 183 6,100 -774 Descending Los Angeles Center
Sat 01:59:34 AM 35.9203 -115.2567 21° North 156 180 5,500 -885 Descending Los Angeles Center
Sat 01:59:56 AM 35.9339 -115.2469 30° Northeast 156 180 5,200 -800 Descending Los Angeles Center
Sat 02:00:34 AM 35.9586 -115.2333 24° Northeast 156 180 4,700 -492 Descending Los Angeles Center
Sat 02:00:57 AM 35.9683 -115.2286 21° North 157 181 4,700 -787 Level Los Angeles Center
Sat 02:01:35 AM 35.9933 -115.2142 25° Northeast 135 155 3,900 -500 Descending Los Angeles Center
Sat 02:01:57 AM 36.0078 -115.2075 20° North 155 178 4,200 -716 Climbing Los Angeles Center
Sat 02:02:42 AM 36.0319 -115.1933 25° Northeast 133 153 3,100 -1,029 Descending Los Angeles Center
Sat 02:03:42 AM 36.0681 -115.1708 27° Northeast 137 158 2,400 -700 Descending Los Angeles Center

Login

Don't have an account? Register now (free) for customized features, flight alerts, and more!